createdAt,value
2017-07-15T00:01:32.199Z,6.50
2017-07-15T00:04:00.588Z,6.53
2017-07-15T00:06:28.976Z,6.20
2017-07-15T00:08:57.246Z,8.03
2017-07-15T00:11:26.442Z,7.10
2017-07-15T00:13:54.732Z,7.30
2017-07-15T00:16:23.007Z,6.37
2017-07-15T00:18:51.310Z,7.50
2017-07-15T00:21:19.619Z,6.83
2017-07-15T00:23:48.023Z,7.67
2017-07-15T00:26:16.344Z,8.20
2017-07-15T00:28:45.392Z,6.93
2017-07-15T00:31:13.737Z,7.60
2017-07-15T00:33:42.824Z,6.97
2017-07-15T00:36:11.094Z,6.77
2017-07-15T00:38:39.394Z,7.90
2017-07-15T00:41:07.679Z,7.20
2017-07-15T00:43:36.072Z,7.37
2017-07-15T00:46:04.361Z,7.77
2017-07-15T00:48:32.683Z,7.47
2017-07-15T00:51:01.736Z,6.30
2017-07-15T00:53:30.033Z,7.27
2017-07-15T00:55:58.530Z,6.83
2017-07-15T00:58:26.810Z,6.40
2017-07-15T01:00:55.128Z,6.73
2017-07-15T01:03:23.413Z,6.07
2017-07-15T01:05:51.737Z,7.17
2017-07-15T01:08:20.084Z,7.10
2017-07-15T01:10:48.423Z,7.77
2017-07-15T01:13:16.771Z,6.83
2017-07-15T01:15:45.042Z,6.47
2017-07-15T01:18:13.443Z,7.13
2017-07-15T01:20:41.742Z,7.63
2017-07-15T01:23:10.051Z,7.73
2017-07-15T01:25:39.132Z,6.67
2017-07-15T01:28:07.467Z,6.27
2017-07-15T01:30:35.743Z,6.53
2017-07-15T01:33:04.104Z,6.60
2017-07-15T01:35:32.486Z,8.10
2017-07-15T01:38:00.776Z,7.10
2017-07-15T01:40:29.081Z,8.30
2017-07-15T01:42:57.447Z,7.27
2017-07-15T01:45:25.731Z,8.03
2017-07-15T01:47:54.135Z,7.80
2017-07-15T01:50:22.434Z,6.97
2017-07-15T01:52:50.698Z,7.53
2017-07-15T01:55:19.007Z,8.50
2017-07-15T01:57:47.291Z,7.60
2017-07-15T02:00:15.604Z,8.37
2017-07-15T02:02:44.696Z,7.53
2017-07-15T02:05:12.983Z,7.80
2017-07-15T02:07:41.376Z,8.43
2017-07-15T02:10:09.651Z,7.83
2017-07-15T02:12:37.966Z,7.00
2017-07-15T02:15:07.014Z,7.67
2017-07-15T02:17:35.337Z,7.60
2017-07-15T02:20:03.641Z,8.13
2017-07-15T02:22:31.930Z,8.00
2017-07-15T02:25:00.234Z,7.17
2017-07-15T02:27:29.333Z,7.63
2017-07-15T02:29:57.603Z,7.50
2017-07-15T02:32:25.906Z,8.67
2017-07-15T02:34:54.297Z,6.97
2017-07-15T02:37:22.611Z,8.47
2017-07-15T02:39:51.683Z,7.77
2017-07-15T02:42:19.989Z,7.27
2017-07-15T02:44:48.362Z,7.50
2017-07-15T02:47:16.728Z,7.63
2017-07-15T02:49:45.004Z,7.97
2017-07-15T02:52:13.334Z,7.13
2017-07-15T02:54:41.722Z,8.33
2017-07-15T02:57:10.035Z,8.03
2017-07-15T02:59:38.412Z,7.67
2017-07-15T03:02:06.710Z,9.10
2017-07-15T03:04:35.013Z,8.50
2017-07-15T03:07:04.109Z,7.30
2017-07-15T03:09:32.387Z,7.53
2017-07-15T03:12:00.698Z,7.50
2017-07-15T03:14:29.752Z,8.90
2017-07-15T03:16:58.858Z,7.10
2017-07-15T03:19:27.176Z,8.17
2017-07-15T03:21:55.451Z,7.70
2017-07-15T03:24:23.764Z,7.57
2017-07-15T03:27:03.923Z,7.37
2017-07-15T03:29:32.260Z,7.30
2017-07-15T03:32:00.675Z,8.13
2017-07-15T03:34:29.000Z,9.00
2017-07-15T03:36:57.387Z,8.27
2017-07-15T03:39:25.653Z,7.63
2017-07-15T03:41:54.062Z,8.20
2017-07-15T03:44:22.455Z,7.93
2017-07-15T03:46:50.758Z,7.60
2017-07-15T03:49:19.043Z,7.47
2017-07-15T03:51:47.424Z,6.80
2017-07-15T03:54:15.698Z,7.70
2017-07-15T03:56:44.112Z,6.37
2017-07-15T03:59:12.504Z,7.07
2017-07-15T04:01:40.814Z,6.30
2017-07-15T04:04:09.896Z,6.70
2017-07-15T04:06:38.180Z,6.10
2017-07-15T04:09:06.496Z,6.33
2017-07-15T04:11:35.588Z,6.23
2017-07-15T04:14:03.864Z,6.03
2017-07-15T04:16:32.167Z,6.33
2017-07-15T04:19:00.487Z,5.70
2017-07-15T04:21:28.834Z,5.47
2017-07-15T04:23:57.122Z,5.60
2017-07-15T04:26:25.430Z,5.70
2017-07-15T04:28:53.712Z,6.27
2017-07-15T04:31:21.995Z,5.73
2017-07-15T04:33:50.316Z,6.37
2017-07-15T04:36:19.368Z,6.40
2017-07-15T04:38:47.652Z,6.23
2017-07-15T04:41:15.965Z,6.17
2017-07-15T04:43:44.279Z,5.90
2017-07-15T04:46:13.376Z,6.47
2017-07-15T04:48:41.750Z,7.13
2017-07-15T04:51:10.022Z,7.10
2017-07-15T04:53:38.344Z,7.93
2017-07-15T04:56:06.621Z,7.27
2017-07-15T04:58:35.027Z,7.27
2017-07-15T05:01:03.321Z,7.30
2017-07-15T05:03:31.709Z,6.27
2017-07-15T05:06:00.015Z,6.50
2017-07-15T05:08:29.208Z,6.70
2017-07-15T05:10:57.515Z,6.10
2017-07-15T05:13:26.808Z,6.27
2017-07-15T05:15:55.083Z,7.07
2017-07-15T05:18:23.380Z,5.17
2017-07-15T05:20:51.691Z,5.93
2017-07-15T05:23:20.783Z,5.27
2017-07-15T05:25:49.114Z,6.43
2017-07-15T05:28:17.387Z,5.70
2017-07-15T05:30:46.431Z,5.27
2017-07-15T05:33:14.788Z,5.30
2017-07-15T05:35:43.836Z,5.90
2017-07-15T05:38:12.168Z,5.87
2017-07-15T05:40:40.438Z,5.53
2017-07-15T05:43:08.724Z,5.03
2017-07-15T05:45:37.022Z,5.20
2017-07-15T05:48:05.394Z,4.80
2017-07-15T05:50:34.125Z,5.30
2017-07-15T05:53:02.491Z,4.30
2017-07-15T05:55:30.781Z,5.60
2017-07-15T05:57:59.086Z,4.90
2017-07-15T06:00:27.365Z,5.30
2017-07-15T06:02:55.756Z,4.60
2017-07-15T06:05:24.247Z,5.30
2017-07-15T06:07:52.644Z,4.70
2017-07-15T06:10:20.918Z,4.40
2017-07-15T06:12:49.316Z,4.33
2017-07-15T06:15:17.611Z,5.50
2017-07-15T06:17:45.923Z,4.77
2017-07-15T06:20:15.098Z,5.07
2017-07-15T06:22:43.389Z,4.73
2017-07-15T06:25:11.705Z,4.67
2017-07-15T06:27:40.086Z,4.43
2017-07-15T06:30:08.396Z,4.50
2017-07-15T06:32:37.438Z,4.67
2017-07-15T06:35:05.819Z,5.07
2017-07-15T06:37:34.145Z,3.80
2017-07-15T06:40:02.526Z,3.90
2017-07-15T06:42:30.845Z,4.30
2017-07-15T06:44:59.172Z,3.90
2017-07-15T06:47:27.462Z,3.37
2017-07-15T06:49:55.730Z,3.77
2017-07-15T06:52:24.812Z,2.87
2017-07-15T06:54:57.915Z,3.90
2017-07-15T06:57:26.186Z,3.00
2017-07-15T06:59:54.503Z,2.57
2017-07-15T07:02:22.806Z,2.27
2017-07-15T07:04:51.851Z,2.70
2017-07-15T07:07:20.183Z,3.10
2017-07-15T07:09:48.478Z,2.47
2017-07-15T07:12:16.759Z,2.50
2017-07-15T07:14:45.083Z,3.03
2017-07-15T07:17:14.160Z,2.67
2017-07-15T07:19:42.439Z,2.13
2017-07-15T07:22:10.829Z,1.90
2017-07-15T07:24:39.162Z,2.37
2017-07-15T07:27:07.479Z,2.47
2017-07-15T07:29:35.779Z,2.50
2017-07-15T07:32:04.100Z,2.30
2017-07-15T07:34:32.418Z,2.50
2017-07-15T07:37:01.491Z,2.67
2017-07-15T07:39:29.770Z,2.67
2017-07-15T07:41:58.099Z,2.40
2017-07-15T07:44:27.184Z,2.63
2017-07-15T07:46:55.460Z,2.80
2017-07-15T07:49:23.771Z,2.40
2017-07-15T07:51:52.152Z,2.53
2017-07-15T07:54:20.530Z,2.43
2017-07-15T07:56:48.823Z,2.00
2017-07-15T07:59:17.220Z,1.97
2017-07-15T08:01:45.495Z,2.40
2017-07-15T08:04:13.775Z,1.80
2017-07-15T08:06:42.184Z,2.03
2017-07-15T08:09:10.465Z,2.20
2017-07-15T08:11:38.862Z,2.33
2017-07-15T08:14:07.264Z,2.03
2017-07-15T08:16:35.755Z,1.73
2017-07-15T08:19:04.041Z,1.50
2017-07-15T08:21:32.331Z,1.70
2017-07-15T08:24:00.639Z,1.30
2017-07-15T08:26:29.691Z,1.43
2017-07-15T08:28:57.994Z,1.73
2017-07-15T08:31:26.265Z,1.23
2017-07-15T08:33:54.588Z,1.87
2017-07-15T08:36:22.903Z,1.40
2017-07-15T08:38:51.982Z,1.47
2017-07-15T08:41:20.275Z,1.50
2017-07-15T08:43:48.671Z,1.40
2017-07-15T08:46:16.942Z,2.60
2017-07-15T08:48:45.228Z,1.47
2017-07-15T08:51:13.649Z,2.40
2017-07-15T08:53:41.935Z,1.73
2017-07-15T08:56:10.238Z,1.50
2017-07-15T08:58:39.275Z,1.93
2017-07-15T09:01:07.587Z,1.43
2017-07-15T09:03:35.908Z,1.37
2017-07-15T09:06:04.291Z,1.40
2017-07-15T09:08:32.607Z,1.80
2017-07-15T09:11:01.645Z,1.80
2017-07-15T09:13:29.974Z,1.37
2017-07-15T09:15:58.251Z,1.73
2017-07-15T09:18:26.647Z,1.00
2017-07-15T09:20:54.926Z,1.30
2017-07-15T09:23:23.225Z,1.40
2017-07-15T09:25:51.622Z,2.03
2017-07-15T09:28:19.908Z,1.50
2017-07-15T09:30:48.421Z,1.13
2017-07-15T09:33:16.794Z,1.90
2017-07-15T09:35:45.068Z,1.60
2017-07-15T09:38:13.385Z,1.40
2017-07-15T09:40:41.658Z,1.90
2017-07-15T09:43:09.980Z,1.77
2017-07-15T09:45:38.261Z,1.67
2017-07-15T09:48:06.567Z,2.07
2017-07-15T09:50:35.641Z,1.60
2017-07-15T09:53:03.949Z,1.80
2017-07-15T09:55:32.314Z,1.57
2017-07-15T09:58:00.627Z,1.87
2017-07-15T10:00:28.923Z,1.50
2017-07-15T10:02:58.011Z,1.77
2017-07-15T10:05:26.328Z,1.10
2017-07-15T10:07:55.517Z,1.80
2017-07-15T10:10:23.893Z,1.40
2017-07-15T10:12:52.197Z,1.70
2017-07-15T10:15:20.588Z,2.00
2017-07-15T10:17:48.883Z,1.70
2017-07-15T10:20:17.269Z,1.33
2017-07-15T10:22:45.659Z,1.53
2017-07-15T10:25:13.963Z,1.67
2017-07-15T10:27:43.055Z,1.60
2017-07-15T10:30:11.330Z,1.50
2017-07-15T10:32:39.601Z,1.70
2017-07-15T10:35:07.920Z,1.43
2017-07-15T10:37:36.215Z,1.77
2017-07-15T10:40:04.700Z,1.67
2017-07-15T10:42:32.983Z,1.50
2017-07-15T10:45:01.277Z,1.50
2017-07-15T10:47:29.594Z,1.30
2017-07-15T10:49:57.867Z,1.53
2017-07-15T10:52:26.156Z,1.43
2017-07-15T10:54:54.471Z,1.47
2017-07-15T10:57:22.782Z,1.27
2017-07-15T10:59:51.107Z,1.77
2017-07-15T11:02:19.428Z,1.00
2017-07-15T11:04:48.467Z,1.20
2017-07-15T11:07:16.739Z,1.30
2017-07-15T11:09:45.060Z,1.40
2017-07-15T11:12:13.374Z,1.00
2017-07-15T11:14:41.682Z,1.20
2017-07-15T11:17:10.059Z,1.17
2017-07-15T11:19:38.374Z,1.90
2017-07-15T11:22:07.493Z,1.10
2017-07-15T11:24:35.805Z,1.53
2017-07-15T11:27:04.078Z,1.17
2017-07-15T11:29:32.451Z,1.17
2017-07-15T11:32:01.555Z,1.27
2017-07-15T11:34:29.936Z,1.77
2017-07-15T11:36:58.308Z,1.57
2017-07-15T11:39:26.641Z,1.27
2017-07-15T11:41:55.693Z,1.33
2017-07-15T11:44:24.024Z,1.47
2017-07-15T11:46:52.387Z,1.00
2017-07-15T11:49:20.674Z,1.70
2017-07-15T11:51:49.083Z,1.57
2017-07-15T11:54:17.455Z,1.00
2017-07-15T11:56:45.731Z,1.10
2017-07-15T11:59:14.059Z,1.10
2017-07-15T12:01:42.436Z,1.90
2017-07-15T12:04:10.749Z,1.50
2017-07-15T12:06:39.936Z,1.00
2017-07-15T12:09:08.207Z,1.30
2017-07-15T12:11:36.509Z,1.27
2017-07-15T12:14:04.806Z,1.33
2017-07-15T12:16:33.399Z,1.50
2017-07-15T12:19:01.669Z,1.40
2017-07-15T12:21:29.951Z,1.47
2017-07-15T12:23:58.901Z,1.20
2017-07-15T12:26:27.184Z,1.00
2017-07-15T12:28:55.503Z,1.40
2017-07-15T12:31:23.777Z,1.00
2017-07-15T12:33:52.102Z,1.77
2017-07-15T12:36:20.377Z,0.90
2017-07-15T12:38:48.671Z,1.43
2017-07-15T12:41:16.996Z,1.20
2017-07-15T12:43:45.281Z,1.07
2017-07-15T12:46:13.583Z,1.00
2017-07-15T12:48:41.887Z,1.47
2017-07-15T12:51:10.936Z,1.63
2017-07-15T12:53:39.259Z,0.90
2017-07-15T12:56:07.539Z,1.07
2017-07-15T12:58:35.933Z,1.00
2017-07-15T13:01:04.252Z,1.00
2017-07-15T13:03:32.575Z,0.90
2017-07-15T13:06:00.926Z,1.20
2017-07-15T13:08:29.205Z,1.10
2017-07-15T13:10:57.523Z,1.00
2017-07-15T13:13:26.567Z,1.60
2017-07-15T13:15:54.890Z,1.37
2017-07-15T13:18:23.161Z,1.30
2017-07-15T13:20:51.441Z,1.20
2017-07-15T13:23:19.754Z,1.10
2017-07-15T13:25:48.070Z,1.57
2017-07-15T13:28:16.439Z,1.13
2017-07-15T13:30:44.720Z,1.30
2017-07-15T13:33:13.040Z,1.10
2017-07-15T13:35:41.343Z,1.87
2017-07-15T13:38:10.426Z,1.30
2017-07-15T13:40:38.700Z,1.20
2017-07-15T13:43:07.094Z,0.87
2017-07-15T13:45:35.384Z,1.50
2017-07-15T13:48:03.660Z,1.30
2017-07-15T13:50:31.971Z,1.20
2017-07-15T13:53:00.259Z,1.40
2017-07-15T13:55:28.744Z,1.20
2017-07-15T13:57:57.139Z,1.87
2017-07-15T14:00:25.626Z,2.03
2017-07-15T14:02:53.914Z,1.73
2017-07-15T14:05:22.327Z,2.13
2017-07-15T14:07:50.710Z,1.87
2017-07-15T14:10:19.096Z,1.70
2017-07-15T14:12:47.495Z,1.73
2017-07-15T14:15:15.775Z,1.70
2017-07-15T14:17:44.177Z,1.53
2017-07-15T14:20:12.569Z,1.70
2017-07-15T14:22:41.044Z,1.73
2017-07-15T14:25:10.119Z,2.20
2017-07-15T14:27:40.832Z,1.30
2017-07-15T14:30:11.193Z,1.77
2017-07-15T14:32:40.245Z,1.40
2017-07-15T14:35:09.444Z,1.60
2017-07-15T14:37:38.510Z,1.50
2017-07-15T14:40:07.698Z,1.20
2017-07-15T14:42:36.066Z,1.40
2017-07-15T14:45:07.139Z,1.27
2017-07-15T14:47:35.691Z,1.77
2017-07-15T14:50:04.013Z,1.30
2017-07-15T14:52:32.300Z,1.10
2017-07-15T14:55:00.683Z,1.27
2017-07-15T14:57:29.398Z,1.40
2017-07-15T14:59:57.784Z,1.90
2017-07-15T15:02:26.161Z,1.30
2017-07-15T15:04:54.435Z,1.10
2017-07-15T15:10:12.961Z,1.30
2017-07-15T15:12:42.014Z,1.00
2017-07-15T15:15:10.402Z,1.60
2017-07-15T15:17:40.697Z,1.10
2017-07-15T15:20:09.015Z,1.03
2017-07-15T15:22:37.302Z,1.20
2017-07-15T15:25:05.686Z,1.07
2017-07-15T15:27:33.961Z,1.23
2017-07-15T15:30:02.247Z,1.00
2017-07-15T15:32:31.317Z,1.10
2017-07-15T15:34:59.606Z,1.23
2017-07-15T15:37:27.919Z,1.00
2017-07-15T15:39:56.207Z,0.87
2017-07-15T15:42:24.526Z,0.90
2017-07-15T15:44:52.820Z,1.00
2017-07-15T15:47:21.161Z,1.20
2017-07-15T15:52:42.606Z,0.80
2017-07-15T15:55:10.937Z,0.80
2017-07-15T15:57:39.979Z,0.80
2017-07-15T16:00:08.320Z,1.00
2017-07-15T16:02:36.645Z,1.10
2017-07-15T16:05:04.960Z,0.70
2017-07-15T16:07:33.282Z,1.30
2017-07-15T16:10:01.560Z,1.13
2017-07-15T16:12:29.853Z,1.83
2017-07-15T16:14:58.177Z,1.90
2017-07-15T16:17:28.240Z,2.00
2017-07-15T16:19:56.530Z,1.77
2017-07-15T16:22:25.995Z,1.90
2017-07-15T16:24:54.311Z,1.60
2017-07-15T16:27:23.358Z,1.70
2017-07-15T16:29:51.647Z,2.13
2017-07-15T16:32:19.967Z,2.10
2017-07-15T16:34:48.260Z,1.60
2017-07-15T16:37:16.530Z,1.63
2017-07-15T16:39:44.877Z,1.90
2017-07-15T16:42:13.281Z,1.97
2017-07-15T16:44:41.575Z,2.30
2017-07-15T16:47:09.892Z,1.90
2017-07-15T16:49:39.157Z,2.00
2017-07-15T16:52:07.506Z,1.80
2017-07-15T16:54:35.797Z,1.97
2017-07-15T16:57:04.087Z,1.43
2017-07-15T16:59:33.348Z,1.50
2017-07-15T17:02:01.631Z,1.67
2017-07-15T17:04:29.926Z,1.80
2017-07-15T17:06:58.230Z,1.63
2017-07-15T17:09:26.553Z,1.70
2017-07-15T17:11:54.879Z,2.33
2017-07-15T17:14:23.210Z,1.80
2017-07-15T17:16:51.488Z,2.30
2017-07-15T17:19:19.776Z,1.50
2017-07-15T17:21:48.107Z,2.13
2017-07-15T17:24:17.216Z,2.30
2017-07-15T17:26:47.059Z,2.27
2017-07-15T17:29:15.478Z,2.80
2017-07-15T17:31:43.801Z,3.07
2017-07-15T17:34:12.087Z,2.90
2017-07-15T17:36:40.628Z,2.43
2017-07-15T17:39:09.688Z,2.60
2017-07-15T17:41:38.016Z,2.60
2017-07-15T17:44:06.307Z,2.60
2017-07-15T17:46:35.468Z,3.20
2017-07-15T17:49:03.746Z,3.87
2017-07-15T17:51:32.045Z,3.00
2017-07-15T17:54:00.350Z,3.07
2017-07-15T17:56:28.658Z,2.90
2017-07-15T17:58:56.963Z,3.20
2017-07-15T18:01:25.966Z,2.60
2017-07-15T18:03:55.616Z,2.37
2017-07-15T18:06:27.261Z,2.50
2017-07-15T18:08:56.296Z,3.03
2017-07-15T18:11:26.219Z,2.50
2017-07-15T18:13:56.027Z,2.70
2017-07-15T18:16:26.053Z,3.33
2017-07-15T18:18:55.075Z,2.80
2017-07-15T18:21:23.472Z,3.00
2017-07-15T18:23:51.890Z,4.00
2017-07-15T18:26:20.185Z,2.77
2017-07-15T18:28:48.480Z,3.77
2017-07-15T18:31:16.825Z,2.87
2017-07-15T18:33:54.071Z,3.67
2017-07-15T18:36:22.412Z,4.20
2017-07-15T18:38:50.702Z,3.67
2017-07-15T18:41:19.805Z,3.87
2017-07-15T18:43:48.126Z,3.27
2017-07-15T18:46:16.419Z,4.07
2017-07-15T18:48:44.757Z,3.63
2017-07-15T18:51:13.043Z,3.93
2017-07-15T18:53:41.367Z,3.60
2017-07-15T18:56:09.683Z,4.53
2017-07-15T18:58:37.964Z,4.67
2017-07-15T19:01:06.389Z,6.73
2017-07-15T19:03:34.692Z,6.00
2017-07-15T19:06:02.988Z,7.57
2017-07-15T19:08:33.271Z,7.10
2017-07-15T19:11:02.520Z,6.17
2017-07-15T19:13:30.936Z,4.93
2017-07-15T19:16:00.511Z,4.83
2017-07-15T19:18:30.622Z,10.60
2017-07-15T19:21:00.389Z,12.17
2017-07-15T19:23:29.545Z,20.33
2017-07-15T19:25:59.140Z,21.00
2017-07-15T19:28:28.277Z,17.27
2017-07-15T19:30:57.487Z,13.83
2017-07-15T19:33:26.489Z,15.50
2017-07-15T19:35:54.958Z,15.90
2017-07-15T19:38:23.272Z,16.43
2017-07-15T19:40:51.610Z,21.37
2017-07-15T19:43:19.911Z,22.07
2017-07-15T19:45:48.231Z,15.53
2017-07-15T19:48:16.549Z,13.57
2017-07-15T19:50:44.885Z,17.37
2017-07-15T19:53:13.171Z,25.70
2017-07-15T19:55:53.909Z,29.30
2017-07-15T19:58:22.205Z,31.03
2017-07-15T20:00:50.569Z,19.73
2017-07-15T20:03:18.863Z,19.90
2017-07-15T20:05:49.091Z,17.23
2017-07-15T20:08:17.426Z,16.73
2017-07-15T20:10:45.755Z,18.57
2017-07-15T20:13:14.057Z,18.50
2017-07-15T20:15:42.378Z,26.20
2017-07-15T20:18:10.715Z,13.97
2017-07-15T20:20:39.035Z,18.60
2017-07-15T20:23:16.204Z,16.30
2017-07-15T20:25:44.529Z,16.77
2017-07-15T20:28:12.833Z,12.07
2017-07-15T20:30:41.171Z,13.80
2017-07-15T20:33:09.479Z,12.13
2017-07-15T20:35:38.572Z,10.20
2017-07-15T20:38:07.622Z,7.70
2017-07-15T20:40:35.926Z,7.40
2017-07-15T20:43:04.245Z,7.73
2017-07-15T20:45:32.553Z,8.30
2017-07-15T20:48:01.611Z,7.13
2017-07-15T20:50:30.913Z,8.10
2017-07-15T20:53:05.125Z,8.13
2017-07-15T20:55:33.520Z,8.30
2017-07-15T20:58:01.896Z,9.00
2017-07-15T21:00:30.183Z,8.27
2017-07-15T21:02:59.291Z,8.47
2017-07-15T21:05:28.347Z,7.83
2017-07-15T21:07:56.718Z,8.23
2017-07-15T21:10:26.933Z,9.80
2017-07-15T21:12:56.033Z,11.27
2017-07-15T21:15:25.110Z,8.77
2017-07-15T21:18:01.300Z,8.80
2017-07-15T21:20:29.615Z,9.10
2017-07-15T21:22:57.891Z,8.47
2017-07-15T21:25:26.248Z,11.30
2017-07-15T21:27:54.539Z,9.53
2017-07-15T21:30:22.823Z,9.10
2017-07-15T21:32:51.147Z,7.80
2017-07-15T21:35:19.442Z,8.63
2017-07-15T21:37:48.495Z,8.83
2017-07-15T21:40:16.807Z,8.87
2017-07-15T21:42:45.134Z,8.47
2017-07-15T21:45:13.472Z,9.23
2017-07-15T21:47:41.795Z,7.00
2017-07-15T21:50:10.147Z,7.37
2017-07-15T21:52:38.560Z,7.57
2017-07-15T21:55:14.566Z,7.73
2017-07-15T21:57:44.064Z,8.27
2017-07-15T22:00:13.060Z,7.97
2017-07-15T22:02:42.731Z,16.13
2017-07-15T22:05:12.711Z,14.10
2017-07-15T22:07:41.630Z,11.50
2017-07-15T22:10:10.605Z,10.33
2017-07-15T22:12:39.644Z,11.27
2017-07-15T22:15:11.938Z,9.93
2017-07-15T22:17:41.065Z,8.10
2017-07-15T22:20:10.195Z,8.07
2017-07-15T22:22:38.474Z,8.70
2017-07-15T22:25:06.823Z,8.77
2017-07-15T22:27:35.283Z,7.60
2017-07-15T22:30:03.586Z,8.60
2017-07-15T22:32:31.975Z,9.27
2017-07-15T22:35:00.288Z,9.63
2017-07-15T22:37:28.570Z,9.23
2017-07-15T22:39:56.906Z,9.30
2017-07-15T22:42:25.178Z,8.33
2017-07-15T22:44:53.460Z,8.00
2017-07-15T22:47:22.543Z,8.67
2017-07-15T22:49:51.659Z,7.90
2017-07-15T22:52:19.939Z,7.63
2017-07-15T22:54:48.275Z,7.47
2017-07-15T22:57:16.606Z,8.33
2017-07-15T22:59:44.930Z,8.70
2017-07-15T23:02:14.003Z,6.97
2017-07-15T23:04:42.311Z,8.07
2017-07-15T23:07:10.598Z,7.30
2017-07-15T23:09:38.903Z,7.27
2017-07-15T23:12:07.955Z,7.67
2017-07-15T23:14:36.268Z,8.27
2017-07-15T23:17:04.551Z,7.20
2017-07-15T23:19:32.879Z,7.60
2017-07-15T23:22:07.826Z,8.50
2017-07-15T23:24:36.909Z,7.27
2017-07-15T23:27:05.204Z,7.40
2017-07-15T23:29:33.525Z,7.67
2017-07-15T23:32:01.821Z,7.50
2017-07-15T23:34:30.863Z,7.57
2017-07-15T23:36:59.311Z,8.27
2017-07-15T23:39:28.353Z,7.70
2017-07-15T23:41:56.635Z,7.23
2017-07-15T23:44:24.953Z,8.03
2017-07-15T23:46:53.232Z,6.30
2017-07-15T23:49:21.567Z,7.40
2017-07-15T23:51:50.624Z,7.13
2017-07-15T23:54:18.903Z,6.70
2017-07-15T23:56:47.231Z,6.73
2017-07-15T23:59:15.515Z,7.70
